Time;durP1;ratioP1;P1;durP2;ratioP2;P2;SDS_P1;SDS_P2;PMS_P1;PMS_P2;Temp;Humidity;BMP_temperature;BMP_pressure;BME280_temperature;BME280_humidity;BME280_pressure;Samples;Min_cycle;Max_cycle;Signal;HPM_P1;HPM_P2
2022/10/05 00:00:21;;;;;;;18.60;7.82;;;;;;;12.14;89.22;101449.28;5094178;28;19920;-53
2022/10/05 00:02:51;;;;;;;19.75;7.55;;;;;;;12.14;89.20;101446.63;5094309;28;20070;-53
2022/10/05 00:05:28;;;;;;;17.40;8.25;;;;;;;12.14;89.77;101452.78;5093698;28;20101;-54
2022/10/05 00:08:00;;;;;;;20.75;8.40;;;;;;;12.04;89.84;101439.53;5092954;28;20032;-54
2022/10/05 00:10:28;;;;;;;16.27;7.88;;;;;;;11.99;89.63;101431.16;5094257;28;20048;-54
2022/10/05 00:12:54;;;;;;;20.88;9.20;;;;;;;11.87;90.37;101434.94;5093925;28;20443;-54
2022/10/05 00:15:22;;;;;;;24.73;8.55;;;;;;;11.89;90.48;101439.09;5093887;28;20493;-53
2022/10/05 00:17:48;;;;;;;18.52;8.80;;;;;;;11.94;90.82;101437.88;5093677;28;20094;-54
2022/10/05 00:20:22;;;;;;;23.00;9.20;;;;;;;11.98;90.56;101428.63;5093758;28;20052;-54
2022/10/05 00:23:12;;;;;;;19.85;8.13;;;;;;;12.00;90.44;101437.28;5093867;28;20046;-53
2022/10/05 00:25:39;;;;;;;21.63;9.32;;;;;;;11.98;90.70;101429.47;5094217;28;20130;-54
2022/10/05 00:28:16;;;;;;;21.13;9.10;;;;;;;12.01;90.84;101426.50;5092450;28;20040;-54
2022/10/05 00:30:44;;;;;;;18.75;8.77;;;;;;;11.93;90.81;101422.91;5093964;28;20436;-54
2022/10/05 00:33:10;;;;;;;18.63;8.60;;;;;;;12.10;90.08;101420.31;5092402;28;20455;-53
2022/10/05 00:35:37;;;;;;;22.23;9.30;;;;;;;12.01;90.69;101421.19;5093698;28;20043;-53
2022/10/05 00:38:04;;;;;;;24.88;8.77;;;;;;;12.00;90.81;101421.34;5092649;28;20041;-54
2022/10/05 00:40:59;;;;;;;22.35;8.75;;;;;;;12.04;90.59;101423.56;5093555;28;20056;-54
2022/10/05 00:43:39;;;;;;;20.23;8.80;;;;;;;12.02;90.99;101422.84;5093388;28;20052;-54
2022/10/05 00:46:19;;;;;;;20.85;9.70;;;;;;;12.06;90.74;101424.25;5093413;28;20118;-55
2022/10/05 00:51:58;;;;;;;21.02;8.98;;;;;;;12.10;90.92;101422.13;5136670;27;19919;-56
2022/10/05 00:54:37;;;;;;;;;;;;;;;12.05;90.92;101427.88;5152704;27;20087;-53
2022/10/05 00:57:32;;;;;;;21.65;9.05;;;;;;;12.08;90.60;101419.63;5152239;27;19920;-52
2022/10/05 01:03:03;;;;;;;23.92;9.63;;;;;;;11.99;91.62;101423.16;5070367;28;20360;-53
2022/10/05 01:05:47;;;;;;;29.30;10.50;;;;;;;12.05;91.34;101422.56;5069945;28;20110;-52
2022/10/05 01:08:31;;;;;;;24.83;11.13;;;;;;;12.02;91.46;101427.34;5070435;28;20044;-52
2022/10/05 01:11:20;;;;;;;24.33;10.55;;;;;;;11.99;91.42;101423.16;5070471;28;20098;-52
2022/10/05 01:14:13;;;;;;;22.80;10.25;;;;;;;11.93;91.53;101423.72;5069216;28;20495;-53
2022/10/05 01:16:49;;;;;;;23.55;10.90;;;;;;;11.99;91.70;101423.16;5070153;28;20037;-55
2022/10/05 01:19:47;;;;;;;26.50;11.15;;;;;;;11.87;92.06;101422.47;5070062;28;20048;-52
2022/10/05 01:22:34;;;;;;;20.42;10.02;;;;;;;11.89;92.42;101422.31;5069934;28;20079;-54
2022/10/05 01:25:25;;;;;;;21.98;11.35;;;;;;;11.78;92.30;101423.34;5069818;28;20037;-54
2022/10/05 01:28:01;;;;;;;;;;;;;;;11.92;92.34;101413.28;5070394;28;20072;-51
2022/10/05 01:30:38;;;;;;;21.80;9.75;;;;;;;11.94;91.94;101406.81;5068290;28;19986;-53
2022/10/05 01:33:30;;;;;;;26.00;11.13;;;;;;;11.87;92.29;101403.03;5070143;28;20048;-53
2022/10/05 01:36:17;;;;;;;20.30;10.35;;;;;;;11.81;92.44;101398.31;5068489;28;20049;-54
2022/10/05 01:39:15;;;;;;;20.55;10.43;;;;;;;11.80;92.53;101394.78;5070109;28;20051;-52
2022/10/05 01:42:08;;;;;;;21.10;11.15;;;;;;;11.84;92.53;101396.19;5069389;28;20557;-53
2022/10/05 01:44:44;;;;;;;25.92;10.70;;;;;;;11.73;93.11;101393.69;5070072;28;20055;-53
2022/10/05 01:47:27;;;;;;;25.83;10.90;;;;;;;11.83;92.40;101391.03;5068596;28;20075;-52
2022/10/05 01:50:01;;;;;;;25.88;11.75;;;;;;;11.63;93.10;101385.78;5069610;28;20114;-50
2022/10/05 01:53:07;;;;;;;23.30;10.38;;;;;;;11.60;93.68;101387.88;5031860;28;20048;-53
2022/10/05 01:55:44;;;;;;;21.77;10.70;;;;;;;11.75;93.30;101390.91;5069476;28;20060;-52
2022/10/05 01:58:43;;;;;;;22.67;10.52;;;;;;;11.79;93.16;101386.97;5069126;28;20124;-51
2022/10/05 02:01:24;;;;;;;26.60;10.80;;;;;;;11.78;92.81;101390.63;5083110;28;20044;-51
2022/10/05 02:04:00;;;;;;;22.58;10.95;;;;;;;11.78;92.80;101382.66;5089060;28;20044;-51
2022/10/05 02:06:31;;;;;;;21.25;10.52;;;;;;;11.82;92.28;101381.34;5089511;28;20040;-53
2022/10/05 02:09:14;;;;;;;29.50;11.90;;;;;;;11.77;92.64;101384.47;5089253;28;20062;-51
2022/10/05 02:11:47;;;;;;;23.67;11.07;;;;;;;11.81;92.86;101383.19;5089642;28;20060;-52
2022/10/05 02:14:21;;;;;;;26.65;10.60;;;;;;;11.82;91.93;101376.88;5075069;28;20068;-52
2022/10/05 02:16:52;;;;;;;20.98;10.48;;;;;;;11.75;92.21;101374.94;5076117;28;20052;-50
2022/10/05 02:19:24;;;;;;;23.58;10.30;;;;;;;11.71;92.55;101369.09;5075587;28;20052;-50
2022/10/05 02:21:58;;;;;;;21.88;10.38;;;;;;;11.69;92.76;101371.88;5075159;28;20039;-49
2022/10/05 02:24:31;;;;;;;24.27;10.82;;;;;;;11.68;92.72;101369.41;5075674;28;20044;-50
2022/10/05 02:26:58;;;;;;;22.58;9.95;;;;;;;11.73;92.60;101364.47;5075601;28;20123;-53
2022/10/05 02:29:29;;;;;;;21.13;9.80;;;;;;;11.77;92.23;101365.88;5075421;28;20045;-53
2022/10/05 02:32:02;;;;;;;23.52;9.73;;;;;;;11.70;91.97;101370.09;5035731;28;20041;-55
2022/10/05 02:34:38;;;;;;;19.60;9.65;;;;;;;11.72;92.62;101365.47;5035648;28;20514;-53
2022/10/05 02:40:41;;;;;;;22.13;10.13;;;;;;;11.74;92.48;101363.50;5110742;27;20391;-53
2022/10/05 02:43:27;;;;;;;24.15;10.07;;;;;;;11.82;91.69;101365.41;5109675;28;20039;-49
2022/10/05 02:46:10;;;;;;;20.98;9.65;;;;;;;11.79;92.13;101353.25;5111246;28;20143;-51
2022/10/05 02:49:06;;;;;;;21.00;9.80;;;;;;;11.67;92.48;101365.06;5110680;28;20032;-53
2022/10/05 02:52:13;;;;;;;21.00;9.93;;;;;;;11.82;92.40;101355.59;5088281;28;20843;-53
2022/10/05 02:54:52;;;;;;;23.23;9.57;;;;;;;11.72;91.91;101360.97;5110624;28;20446;-52
2022/10/05 02:57:30;;;;;;;21.67;9.35;;;;;;;11.80;92.41;101357.56;5111100;28;20047;-53
2022/10/05 03:00:07;;;;;;;28.63;10.02;;;;;;;11.86;92.29;101351.69;5110487;28;20051;-53
2022/10/05 03:03:07;;;;;;;20.50;10.07;;;;;;;11.93;92.18;101349.28;5110650;28;20378;-52
2022/10/05 03:05:45;;;;;;;25.92;9.63;;;;;;;11.85;91.78;101357.97;5109792;28;20059;-51
2022/10/05 03:08:23;;;;;;;22.80;10.15;;;;;;;11.88;91.30;101351.56;5110961;28;20153;-52
2022/10/05 03:11:17;;;;;;;23.08;9.63;;;;;;;11.80;91.36;101346.94;5110271;28;20036;-52
2022/10/05 03:14:03;;;;;;;26.05;10.32;;;;;;;11.84;91.67;101343.03;5110309;28;20474;-52
2022/10/05 03:16:57;;;;;;;25.80;9.88;;;;;;;11.83;91.93;101336.03;5110554;28;20520;-52
2022/10/05 03:19:44;;;;;;;22.42;10.30;;;;;;;11.94;91.60;101334.19;5109640;28;20474;-53
2022/10/05 03:22:39;;;;;;;23.98;10.35;;;;;;;11.91;91.23;101337.97;5110052;28;20485;-53
2022/10/05 03:25:45;;;;;;;22.70;9.90;;;;;;;11.98;91.50;101339.06;5108770;28;20048;-52
2022/10/05 03:28:25;;;;;;;24.88;11.10;;;;;;;12.03;91.63;101335.97;5109781;28;20477;-53
2022/10/05 03:31:21;;;;;;;21.95;11.02;;;;;;;12.10;91.56;101327.22;5108219;28;20040;-53
2022/10/05 03:33:58;;;;;;;22.83;11.07;;;;;;;12.10;91.13;101332.56;5109751;28;20118;-53
2022/10/05 03:36:37;;;;;;;23.38;11.18;;;;;;;12.15;91.26;101328.59;5109766;28;20047;-52
2022/10/05 03:39:29;;;;;;;28.17;10.90;;;;;;;12.16;91.36;101323.13;5109279;28;20051;-52
2022/10/05 03:42:07;;;;;;;25.38;11.32;;;;;;;12.20;91.24;101321.00;5109291;28;20520;-53
2022/10/05 03:44:59;;;;;;;22.05;11.05;;;;;;;12.23;91.72;101312.72;5110053;28;20124;-52
2022/10/05 03:47:45;;;;;;;21.98;10.38;;;;;;;12.23;90.70;101310.06;5109228;28;20044;-52
2022/10/05 03:50:31;;;;;;;25.40;10.73;;;;;;;12.18;90.34;101312.34;5103682;28;20131;-53
2022/10/05 03:53:04;;;;;;;20.98;10.40;;;;;;;12.23;89.95;101307.41;5061616;28;20047;-53
2022/10/05 03:55:58;;;;;;;20.25;10.45;;;;;;;12.12;89.93;101307.63;5096307;28;20076;-54
2022/10/05 03:58:39;;;;;;;21.17;11.25;;;;;;;12.09;90.20;101301.59;5095265;28;20071;-52
2022/10/05 04:01:12;;;;;;;21.55;11.00;;;;;;;12.11;91.32;101304.13;5095944;28;20108;-51
2022/10/05 04:03:51;;;;;;;27.23;11.90;;;;;;;12.12;90.79;101297.84;5095286;28;20051;-52
2022/10/05 04:06:26;;;;;;;24.13;10.48;;;;;;;12.12;90.45;101297.00;5095576;28;20075;-52
2022/10/05 04:09:13;;;;;;;22.17;11.07;;;;;;;12.07;90.44;101292.13;5095308;28;20039;-52
2022/10/05 04:11:49;;;;;;;22.38;10.18;;;;;;;12.12;90.82;101303.16;5095798;28;20508;-52
2022/10/05 04:14:22;;;;;;;23.52;10.20;;;;;;;12.19;90.18;101301.56;5095499;28;20370;-52
2022/10/05 04:16:57;;;;;;;20.25;10.40;;;;;;;12.24;90.02;101299.28;5096091;28;20048;-52
2022/10/05 04:19:39;;;;;;;20.00;10.23;;;;;;;12.30;90.43;101297.84;5094154;28;20042;-53
2022/10/05 04:22:14;;;;;;;19.42;10.88;;;;;;;12.35;90.25;101303.56;5095447;28;20131;-52
2022/10/05 04:24:55;;;;;;;18.98;10.52;;;;;;;12.31;89.68;101296.84;5095544;28;20040;-53
2022/10/05 04:27:30;;;;;;;30.75;12.45;;;;;;;12.35;89.63;101286.72;5095625;28;20040;-51
2022/10/05 04:30:06;;;;;;;20.20;10.65;;;;;;;12.40;89.98;101293.25;5095440;28;20064;-53
2022/10/05 04:32:37;;;;;;;27.80;11.40;;;;;;;12.44;89.82;101284.00;5095206;28;20040;-52
2022/10/05 04:35:25;;;;;;;23.10;11.55;;;;;;;12.38;89.98;101294.41;5095296;28;20044;-52
2022/10/05 04:38:25;;;;;;;26.55;12.18;;;;;;;12.44;89.15;101292.00;5095108;28;20048;-53
2022/10/05 04:41:24;;;;;;;22.10;10.73;;;;;;;12.27;89.83;101285.66;5094829;28;20106;-54
2022/10/05 04:47:04;;;;;;;24.35;11.32;;;;;;;12.34;89.03;101298.38;5111018;27;20903;-51
2022/10/05 04:50:11;;;;;;;29.98;10.82;;;;;;;12.48;89.57;101295.19;5110533;28;20051;-53
2022/10/05 04:53:04;;;;;;;28.05;12.32;;;;;;;12.53;88.54;101294.72;5071551;28;20166;-53
2022/10/05 04:56:05;;;;;;;19.67;10.43;;;;;;;12.37;88.35;101306.03;5110593;28;20048;-52
2022/10/05 04:58:59;;;;;;;20.38;11.05;;;;;;;12.34;88.67;101303.69;5110780;28;20074;-53
2022/10/05 05:01:55;;;;;;;25.13;10.88;;;;;;;12.42;88.65;101295.78;5110152;28;20044;-52
2022/10/05 05:04:50;;;;;;;25.02;10.50;;;;;;;12.49;88.41;101305.66;5109736;28;20044;-53
2022/10/05 05:07:34;;;;;;;22.95;11.07;;;;;;;12.47;88.39;101304.97;5105258;28;20041;-51
2022/10/05 05:10:32;;;;;;;25.45;10.57;;;;;;;12.49;87.51;101296.84;5109754;28;20054;-53
2022/10/05 05:13:39;;;;;;;22.50;10.80;;;;;;;12.59;87.13;101299.44;5106441;28;20048;-52
2022/10/05 05:16:15;;;;;;;21.10;10.63;;;;;;;12.67;87.27;101305.63;5098729;28;20059;-53
2022/10/05 05:22:19;;;;;;;25.02;10.27;;;;;;;12.69;88.04;101297.50;5089649;27;20397;-51
2022/10/05 05:25:26;;;;;;;24.58;11.30;;;;;;;12.73;87.71;101303.34;5086385;28;20033;-49
2022/10/05 05:28:01;;;;;;;23.77;10.70;;;;;;;12.66;87.70;101301.31;5088748;28;20048;-54
2022/10/05 05:30:39;;;;;;;23.45;11.30;;;;;;;12.69;87.20;101302.81;5085222;28;20099;-52
2022/10/05 05:33:21;;;;;;;22.10;10.80;;;;;;;12.71;87.39;101303.50;5084988;28;20564;-50
2022/10/05 05:36:04;;;;;;;22.17;10.98;;;;;;;12.79;87.06;101302.75;5085744;28;20076;-52
2022/10/05 05:38:41;;;;;;;24.13;11.93;;;;;;;12.82;86.70;101299.75;5089993;28;20048;-52
2022/10/05 05:41:11;;;;;;;24.60;10.80;;;;;;;12.73;87.03;101304.19;5082730;28;20430;-52
2022/10/05 05:44:14;;;;;;;21.63;10.68;;;;;;;12.76;86.82;101301.22;5082677;28;20040;-50
2022/10/05 05:46:55;;;;;;;20.65;10.65;;;;;;;12.74;86.83;101305.03;5084313;28;20067;-52
2022/10/05 05:52:24;;;;;;;20.83;10.70;;;;;;;12.64;87.36;101303.31;5025422;28;20137;-53
2022/10/05 05:54:57;;;;;;;24.08;10.73;;;;;;;12.72;87.69;101301.69;5058105;28;20037;-52
2022/10/05 05:57:40;;;;;;;25.15;11.82;;;;;;;12.74;87.27;101302.38;5048617;28;20483;-52
2022/10/05 06:00:20;;;;;;;20.02;10.73;;;;;;;12.74;86.68;101308.53;5044305;28;20422;-53
2022/10/05 06:03:06;;;;;;;22.58;10.95;;;;;;;12.73;86.40;101296.19;5053778;28;20045;-53
2022/10/05 06:05:40;;;;;;;;;;;;;;;12.80;86.69;101299.91;5048858;28;20104;-52
2022/10/05 06:08:43;;;;;;;18.83;9.70;;;;;;;12.81;87.03;101304.25;5037739;28;19920;-55
2022/10/05 06:11:24;;;;;;;20.08;9.95;;;;;;;12.81;86.53;101301.59;5031078;28;20402;-54
2022/10/05 06:13:54;;;;;;;18.95;10.43;;;;;;;12.77;86.70;101300.25;5042332;28;20478;-54
2022/10/05 06:16:44;;;;;;;20.08;10.02;;;;;;;12.78;86.35;101309.88;5043285;28;20099;-55
2022/10/05 06:19:15;;;;;;;20.05;9.85;;;;;;;12.81;87.14;101306.09;5043009;28;20049;-55
2022/10/05 06:21:52;;;;;;;21.63;10.63;;;;;;;12.83;86.17;101304.94;5053919;28;20067;-55
2022/10/05 06:27:35;;;;;;;20.35;9.77;;;;;;;12.74;86.12;101313.03;5096786;27;20430;-54
2022/10/05 06:30:13;;;;;;;23.38;11.27;;;;;;;12.78;86.15;101307.22;5082419;28;20505;-53
2022/10/05 06:33:18;;;;;;;23.40;11.63;;;;;;;12.80;86.53;101312.41;5099873;28;20044;-53
2022/10/05 06:35:59;;;;;;;22.02;10.77;;;;;;;12.86;86.93;101309.97;5096236;28;20059;-53
2022/10/05 06:38:54;;;;;;;20.25;10.10;;;;;;;12.98;86.41;101307.03;5115988;27;20048;-53
2022/10/05 06:41:39;;;;;;;23.83;10.32;;;;;;;13.04;85.67;101301.06;5122764;28;20085;-52
2022/10/05 06:44:16;;;;;;;34.20;12.18;;;;;;;12.97;86.08;101305.34;5088286;28;20474;-52
2022/10/05 06:46:58;;;;;;;19.40;9.82;;;;;;;12.99;86.79;101300.75;5098042;28;20044;-51
2022/10/05 06:49:48;;;;;;;19.40;10.05;;;;;;;13.02;86.32;101303.94;5107128;28;20032;-53
2022/10/05 06:52:49;;;;;;;18.95;9.45;;;;;;;13.03;86.93;101304.75;4988687;28;20048;-52
2022/10/05 06:55:42;;;;;;;19.08;9.02;;;;;;;13.04;86.65;101304.59;5100256;28;20036;-52
2022/10/05 07:01:21;;;;;;;16.27;9.40;;;;;;;13.19;85.73;101307.53;5136016;27;20350;-51
2022/10/05 07:04:24;;;;;;;26.00;10.00;;;;;;;13.19;86.24;101307.53;5128318;28;20035;-52
2022/10/05 07:06:57;;;;;;;20.33;9.15;;;;;;;13.30;85.49;101295.75;5127382;28;20043;-52
2022/10/05 07:09:52;;;;;;;22.00;9.90;;;;;;;13.30;85.66;101308.22;5119731;28;20529;-51
2022/10/05 07:12:49;;;;;;;19.98;9.60;;;;;;;13.33;85.96;101306.09;5125203;28;20043;-54
2022/10/05 07:15:33;;;;;;;22.83;9.80;;;;;;;13.41;85.98;101305.34;5126260;28;20047;-54
2022/10/05 07:18:30;;;;;;;26.27;9.68;;;;;;;13.48;85.84;101302.84;5118495;28;20400;-52
2022/10/05 07:21:10;;;;;;;27.15;10.10;;;;;;;13.43;85.28;101298.03;5126239;27;20057;-53
2022/10/05 07:23:58;;;;;;;20.88;9.52;;;;;;;13.37;85.46;101304.81;5128081;27;20035;-52
2022/10/05 07:26:45;;;;;;;22.70;9.80;;;;;;;13.40;85.74;101299.16;5128761;27;20059;-51
2022/10/05 07:29:25;;;;;;;17.77;9.85;;;;;;;13.54;85.56;101296.91;5118620;27;20049;-53
2022/10/05 07:32:26;;;;;;;24.02;9.45;;;;;;;13.64;85.73;101310.91;5124498;28;20477;-53
2022/10/05 07:35:05;;;;;;;23.23;9.75;;;;;;;13.60;85.09;101302.41;5115807;28;20051;-52
2022/10/05 07:37:55;;;;;;;21.88;9.23;;;;;;;13.72;85.64;101302.97;5118813;28;20044;-50
2022/10/05 07:40:40;;;;;;;18.25;8.85;;;;;;;13.68;85.51;101298.97;5122318;28;20044;-52
2022/10/05 07:43:35;;;;;;;18.92;9.88;;;;;;;13.76;85.54;101306.16;5125871;27;20054;-51
2022/10/05 07:46:25;;;;;;;15.18;8.50;;;;;;;13.75;85.15;101302.66;5123623;28;20040;-51
2022/10/05 07:49:02;;;;;;;21.48;9.27;;;;;;;13.76;84.87;101298.97;5129150;27;20096;-51
2022/10/05 07:51:49;;;;;;;19.90;8.48;;;;;;;13.74;84.73;101306.31;4997857;28;20682;-49
2022/10/05 07:54:45;;;;;;;18.10;8.60;;;;;;;13.81;84.31;101301.19;5119761;28;20096;-51
2022/10/05 07:57:32;;;;;;;14.68;7.72;;;;;;;13.67;84.47;101305.28;5128065;28;20568;-49
2022/10/05 08:00:04;;;;;;;16.17;8.27;;;;;;;13.85;84.21;101301.69;5124407;27;20070;-53
2022/10/05 08:02:51;;;;;;;15.55;8.18;;;;;;;13.97;84.58;101300.38;5122673;27;20043;-53
2022/10/05 08:05:28;;;;;;;19.75;8.30;;;;;;;13.99;83.77;101296.56;5125598;28;20389;-51
2022/10/05 08:08:10;;;;;;;16.55;7.97;;;;;;;14.13;83.72;101300.41;5127412;27;20048;-53
2022/10/05 08:10:45;;;;;;;17.58;7.80;;;;;;;14.16;82.44;101293.94;5106322;28;20037;-51
2022/10/05 08:13:32;;;;;;;16.10;7.35;;;;;;;14.27;82.17;101301.59;5102318;28;20051;-52
2022/10/05 08:16:03;;;;;;;18.75;7.25;;;;;;;14.35;82.69;101295.44;5104032;28;20056;-52
2022/10/05 08:18:54;;;;;;;15.80;7.25;;;;;;;14.28;80.98;101305.09;5108768;27;20042;-52
2022/10/05 08:21:29;;;;;;;14.45;7.68;;;;;;;14.33;81.96;101300.94;5114321;28;20071;-52
2022/10/05 08:24:11;;;;;;;13.57;6.90;;;;;;;14.53;81.58;101293.44;5107142;27;20059;-52
2022/10/05 08:27:00;;;;;;;;;;;;;;;14.58;81.38;101295.66;5109609;28;20489;-52
2022/10/05 08:29:36;;;;;;;14.38;6.40;;;;;;;14.64;80.72;101296.81;5098748;28;20023;-53
2022/10/05 08:32:11;;;;;;;16.02;6.75;;;;;;;14.79;80.14;101292.50;5111067;28;20036;-53
2022/10/05 08:34:50;;;;;;;15.27;6.60;;;;;;;14.74;78.99;101292.97;5114062;28;20051;-53
2022/10/05 08:37:21;;;;;;;15.18;6.50;;;;;;;14.81;79.34;101292.31;5110607;28;20044;-51
2022/10/05 08:39:58;;;;;;;13.88;6.25;;;;;;;14.95;78.79;101291.63;5114988;28;20062;-51
2022/10/05 08:43:05;;;;;;;18.23;6.28;;;;;;;15.08;77.98;101293.75;5110693;28;20126;-52
2022/10/05 08:46:11;;;;;;;14.07;5.70;;;;;;;15.11;77.09;101293.44;5103788;28;20404;-53
2022/10/05 08:49:18;;;;;;;12.60;5.72;;;;;;;15.08;77.11;101291.09;5107492;28;20051;-52
2022/10/05 08:52:09;;;;;;;13.38;6.22;;;;;;;15.27;76.82;101293.38;5072266;28;20054;-53
2022/10/05 08:55:16;;;;;;;10.95;5.38;;;;;;;15.36;77.50;101291.53;5112579;28;20054;-52
2022/10/05 09:00:54;;;;;;;14.93;6.03;;;;;;;15.42;75.93;101290.00;5110273;27;20456;-51
2022/10/05 09:03:49;;;;;;;19.45;6.10;;;;;;;15.52;75.43;101294.16;5092862;28;20111;-51
2022/10/05 09:06:49;;;;;;;15.63;5.90;;;;;;;15.38;76.61;101289.50;5101120;28;20062;-52
2022/10/05 09:09:33;;;;;;;15.85;6.30;;;;;;;15.43;75.70;101294.38;5096908;28;20040;-54
2022/10/05 09:12:29;;;;;;;19.23;6.20;;;;;;;15.42;75.75;101287.34;5109401;28;20047;-53
2022/10/05 09:18:06;;;;;;;20.85;6.55;;;;;;;15.68;74.43;101298.59;5102105;27;20366;-52
2022/10/05 09:20:50;;;;;;;13.95;6.53;;;;;;;15.56;75.72;101283.94;5112540;27;20089;-51
2022/10/05 09:26:27;;;;;;;17.85;6.45;;;;;;;15.73;75.66;101282.00;5063751;28;20867;-53
2022/10/05 09:29:22;;;;;;;18.25;6.57;;;;;;;15.69;76.25;101283.38;5056640;28;20487;-52
2022/10/05 09:32:18;;;;;;;16.13;6.32;;;;;;;15.75;75.74;101274.69;5054945;28;20410;-52
2022/10/05 09:35:17;;;;;;;17.17;7.10;;;;;;;15.76;75.16;101278.22;5051983;28;20037;-55
2022/10/05 09:38:08;;;;;;;15.93;6.45;;;;;;;15.77;75.16;101274.50;5045107;28;20037;-51
2022/10/05 09:41:14;;;;;;;15.13;6.22;;;;;;;15.79;75.13;101277.84;5050403;28;20433;-53
2022/10/05 09:44:18;;;;;;;17.02;6.22;;;;;;;15.80;75.90;101277.66;5051655;28;20041;-49
2022/10/05 09:50:06;;;;;;;17.33;6.25;;;;;;;15.87;76.49;101267.09;5143990;27;20130;-52
2022/10/05 09:53:13;;;;;;;18.50;7.03;;;;;;;15.84;76.50;101275.47;5087897;27;20100;-53
2022/10/05 09:56:19;;;;;;;14.93;5.60;;;;;;;15.99;75.40;101276.41;5126275;27;20054;-52
2022/10/05 10:02:16;;;;;;;15.00;5.55;;;;;;;15.97;74.45;101277.56;5110728;27;20377;-53
2022/10/05 10:05:13;;;;;;;9.43;4.72;;;;;;;16.09;75.34;101274.31;5114168;28;20047;-53
2022/10/05 10:08:03;;;;;;;14.02;5.25;;;;;;;16.06;75.87;101265.81;5100663;28;20046;-53
2022/10/05 10:14:02;;;;;;;16.02;5.75;;;;;;;16.14;75.76;101263.09;5108482;27;20382;-53
2022/10/05 10:16:59;;;;;;;11.23;5.32;;;;;;;16.17;75.45;101260.06;5089356;28;20500;-52
2022/10/05 10:20:05;;;;;;;15.18;5.72;;;;;;;16.25;74.43;101261.84;5086455;28;20420;-52
2022/10/05 10:23:01;;;;;;;10.57;5.13;;;;;;;16.09;74.95;101262.78;5091514;28;20045;-53
2022/10/05 10:26:07;;;;;;;16.42;5.95;;;;;;;16.14;75.21;101268.44;5084290;28;20039;-53
2022/10/05 10:28:53;;;;;;;14.02;5.45;;;;;;;16.22;74.82;101268.38;5090225;28;20493;-53
2022/10/05 10:32:00;;;;;;;18.98;6.68;;;;;;;16.34;75.72;101265.28;5096668;28;20062;-51
2022/10/05 10:34:58;;;;;;;17.58;5.85;;;;;;;16.37;75.06;101264.91;5087295;28;20044;-52
2022/10/05 10:37:57;;;;;;;13.10;5.68;;;;;;;16.49;74.87;101271.53;5079543;28;20497;-51
2022/10/05 10:40:56;;;;;;;9.75;5.00;;;;;;;16.67;73.84;101263.16;5088768;28;20506;-52
2022/10/05 10:46:32;;;;;;;18.33;4.55;;;;;;;17.01;73.10;101259.19;5150736;27;20126;-53
2022/10/05 10:49:29;;;;;;;14.65;4.97;;;;;;;17.23;70.88;101254.75;5109310;28;20063;-53
2022/10/05 10:52:27;;;;;;;12.60;4.03;;;;;;;18.52;65.93;101251.41;5068975;28;20085;-53
2022/10/05 10:58:04;;;;;;;15.00;4.10;;;;;;;18.69;64.89;101246.59;5101032;27;20361;-53
2022/10/05 11:00:43;;;;;;;8.63;3.58;;;;;;;21.17;55.82;101241.63;5102109;28;20045;-52
2022/10/05 11:03:37;;;;;;;9.05;3.28;;;;;;;23.01;49.16;101221.91;5097008;27;20052;-53
2022/10/05 11:06:36;;;;;;;12.30;3.88;;;;;;;25.80;43.95;101231.97;5103486;28;20048;-54
2022/10/05 11:09:43;;;;;;;12.48;4.60;;;;;;;26.47;41.93;101230.41;5109731;28;20036;-56
2022/10/05 11:12:43;;;;;;;11.15;4.40;;;;;;;27.49;39.55;101230.16;5101168;28;20519;-55
2022/10/05 11:15:40;;;;;;;11.52;4.47;;;;;;;27.52;39.10;101213.28;5124456;28;20050;-54
2022/10/05 11:18:21;;;;;;;10.18;3.67;;;;;;;27.55;38.96;101197.25;5113607;28;20052;-55
2022/10/05 11:21:30;;;;;;;11.70;3.95;;;;;;;26.56;39.96;101203.56;5104478;28;20054;-55
2022/10/05 11:24:37;;;;;;;12.60;3.92;;;;;;;26.32;41.26;101200.22;5113919;28;20396;-55
2022/10/05 11:27:34;;;;;;;10.68;4.00;;;;;;;25.54;41.62;101192.66;5121043;28;20050;-55
2022/10/05 11:30:24;;;;;;;14.05;4.45;;;;;;;25.26;43.08;101188.03;5115237;27;20090;-54
2022/10/05 11:33:18;;;;;;;10.35;4.68;;;;;;;24.92;44.00;101168.84;5113595;28;20067;-55
2022/10/05 11:36:07;;;;;;;10.68;4.60;;;;;;;25.33;43.35;101175.13;5101715;28;20084;-53
2022/10/05 11:39:14;;;;;;;11.27;4.18;;;;;;;25.90;41.93;101168.81;5110624;27;20047;-54
2022/10/05 11:42:13;;;;;;;10.95;3.90;;;;;;;25.68;42.43;101152.41;5096482;28;20040;-57
2022/10/05 11:45:10;;;;;;;8.18;3.70;;;;;;;25.22;42.78;101149.66;5103000;28;20040;-55
2022/10/05 11:48:19;;;;;;;12.82;4.03;;;;;;;25.65;43.13;101144.78;5099495;28;20042;-53
2022/10/05 11:51:25;;;;;;;13.05;4.30;;;;;;;24.23;44.10;101145.09;5097706;28;20062;-53
2022/10/05 11:54:20;;;;;;;13.23;4.40;;;;;;;23.74;46.21;101142.50;5099632;28;20040;-54
2022/10/05 11:56:57;;;;;;;13.80;4.30;;;;;;;23.58;47.23;101129.63;5099086;28;20400;-54
2022/10/05 11:59:33;;;;;;;10.65;4.03;;;;;;;23.35;48.35;101130.38;5104390;28;20130;-54
2022/10/05 12:02:40;;;;;;;11.65;4.35;;;;;;;23.09;49.27;101120.75;5111601;28;20345;-54
2022/10/05 12:05:48;;;;;;;12.65;5.18;;;;;;;22.52;50.06;101115.53;5116082;28;20489;-54
2022/10/05 12:08:53;;;;;;;12.15;4.15;;;;;;;22.34;49.67;101113.63;5090511;28;20036;-54
2022/10/05 12:11:45;;;;;;;13.20;4.38;;;;;;;21.79;51.45;101100.78;5102391;28;20047;-56
2022/10/05 12:14:20;;;;;;;;;;;;;;;21.99;51.24;101103.34;5086978;28;20517;-56
2022/10/05 12:17:21;;;;;;;9.63;4.28;;;;;;;22.27;50.95;101088.59;5091034;28;19963;-56
2022/10/05 12:19:55;;;;;;;12.48;4.43;;;;;;;22.53;51.60;101082.06;5078395;28;20048;-54
2022/10/05 12:22:44;;;;;;;9.80;4.22;;;;;;;22.67;49.75;101083.56;5094793;28;20048;-54
2022/10/05 12:25:42;;;;;;;10.82;4.00;;;;;;;23.10;50.06;101071.81;5101520;28;20114;-54
2022/10/05 12:28:14;;;;;;;10.00;3.55;;;;;;;23.49;47.34;101066.88;5095298;28;20656;-55
2022/10/05 12:33:40;;;;;;;9.30;3.60;;;;;;;23.54;46.83;101052.66;5102781;27;20757;-57
2022/10/05 12:36:13;;;;;;;7.15;3.05;;;;;;;23.82;45.64;101049.28;5098759;28;20439;-55
2022/10/05 12:38:54;;;;;;;9.25;3.22;;;;;;;23.49;45.01;101044.38;5090537;28;20052;-55
2022/10/05 12:41:46;;;;;;;10.75;2.80;;;;;;;23.81;44.48;101044.09;5106477;28;20675;-54
2022/10/05 12:44:37;;;;;;;10.27;2.88;;;;;;;23.81;45.96;101033.25;5100394;28;20527;-55
2022/10/05 12:47:31;;;;;;;8.38;2.83;;;;;;;23.99;44.11;101027.72;5093420;28;20123;-54
2022/10/05 12:50:19;;;;;;;10.98;3.03;;;;;;;23.66;44.34;101029.09;5095840;28;20041;-54
2022/10/05 12:53:18;;;;;;;7.68;3.00;;;;;;;23.65;44.04;101024.75;5036862;28;20040;-55
2022/10/05 12:55:56;;;;;;;8.45;3.00;;;;;;;23.87;43.82;101016.09;5081902;28;20040;-54
2022/10/05 12:59:03;;;;;;;9.40;2.80;;;;;;;23.80;43.68;101015.38;5096442;28;20093;-54
2022/10/05 13:01:40;;;;;;;7.88;2.63;;;;;;;23.92;43.32;101006.19;5094652;28;20035;-55
2022/10/05 13:04:48;;;;;;;7.03;2.80;;;;;;;24.11;42.62;100997.91;5105907;28;20133;-55
2022/10/05 13:10:44;;;;;;;10.38;2.55;;;;;;;25.33;41.58;100993.22;5073889;28;20398;-56
2022/10/05 13:13:51;;;;;;;6.50;2.78;;;;;;;25.66;40.39;100988.84;5069072;28;20091;-56
2022/10/05 13:16:32;;;;;;;6.75;2.53;;;;;;;26.06;39.39;100987.81;5076155;28;20131;-56
2022/10/05 13:19:28;;;;;;;8.60;2.30;;;;;;;25.64;39.11;100982.84;5059702;28;20092;-54
2022/10/05 13:22:19;;;;;;;7.05;2.95;;;;;;;26.25;39.26;100977.47;5067571;28;20076;-55
2022/10/05 13:24:58;;;;;;;9.32;3.08;;;;;;;26.65;38.39;100970.88;5072561;28;20099;-54
2022/10/05 13:27:30;;;;;;;16.60;3.10;;;;;;;26.66;38.58;100975.25;5052133;28;20049;-55
2022/10/05 13:30:18;;;;;;;9.25;3.05;;;;;;;25.86;39.49;100964.69;5072469;28;20051;-55
2022/10/05 13:33:12;;;;;;;7.65;2.95;;;;;;;25.93;40.42;100966.44;5077899;28;20604;-54
2022/10/05 13:35:46;;;;;;;8.48;2.95;;;;;;;25.25;41.38;100963.75;5062437;28;20051;-55
2022/10/05 13:38:27;;;;;;;6.55;2.63;;;;;;;25.07;42.59;100962.09;5059487;28;20056;-55